Time;durP1;ratioP1;P1;durP2;ratioP2;P2;SDS_P1;SDS_P2;PMS_P1;PMS_P2;Temp;Humidity;BMP_temperature;BMP_pressure;BME280_temperature;BME280_humidity;BME280_pressure;Samples;Min_cycle;Max_cycle;Signal;HPM_P1;HPM_P2
2022/06/15 00:00:21;;;;;;;5.45;3.53;;;;;;;16.01;62.13;100148.59;5115527;28;20132;-55
2022/06/15 00:03:05;;;;;;;4.45;3.10;;;;;;;15.99;62.29;100150.34;5117580;28;20047;-56
2022/06/15 00:05:48;;;;;;;5.65;3.47;;;;;;;15.99;62.18;100150.34;5116688;28;20050;-56
2022/06/15 00:08:32;;;;;;;8.93;3.47;;;;;;;15.98;62.32;100145.97;5116888;28;20091;-56
2022/06/15 00:11:21;;;;;;;9.02;3.97;;;;;;;15.98;62.21;100143.38;5116791;28;20925;-57
2022/06/15 00:14:13;;;;;;;6.43;2.97;;;;;;;15.96;62.25;100146.00;5101242;28;20084;-56
2022/06/15 00:16:56;;;;;;;7.38;3.45;;;;;;;15.96;62.03;100146.00;5116908;28;20058;-56
2022/06/15 00:19:40;;;;;;;8.25;3.60;;;;;;;15.95;62.25;100146.03;5116223;28;20054;-57
2022/06/15 00:22:24;;;;;;;6.18;3.33;;;;;;;15.95;62.12;100144.25;5116397;28;20096;-56
2022/06/15 00:25:10;;;;;;;5.43;3.25;;;;;;;15.94;62.24;100142.53;5116483;28;20174;-56
2022/06/15 00:28:08;;;;;;;8.60;3.50;;;;;;;15.94;62.14;100137.28;5173845;27;20250;-55
2022/06/15 00:30:53;;;;;;;9.15;3.67;;;;;;;15.93;62.11;100147.78;5173348;27;20049;-55
2022/06/15 00:33:37;;;;;;;7.80;3.13;;;;;;;15.92;62.16;100133.81;5157936;27;20175;-55
2022/06/15 00:36:22;;;;;;;8.45;4.13;;;;;;;15.92;62.08;100138.19;5173260;27;20046;-55
2022/06/15 00:39:05;;;;;;;;;;;;;;;15.90;62.16;100130.34;5158302;27;20050;-55
2022/06/15 00:41:49;;;;;;;8.48;4.97;;;;;;;15.89;62.10;100125.13;5173496;27;19928;-55
2022/06/15 00:44:37;;;;;;;7.25;3.60;;;;;;;15.88;61.99;100123.38;5173146;27;20129;-56
2022/06/15 00:47:25;;;;;;;9.23;3.90;;;;;;;15.88;61.90;100128.63;5157443;27;20041;-55
2022/06/15 00:50:16;;;;;;;9.68;4.47;;;;;;;15.86;62.21;100123.41;5172687;27;20053;-54
2022/06/15 00:53:07;;;;;;;7.80;4.35;;;;;;;15.86;62.20;100119.91;5157468;27;20421;-56
2022/06/15 00:55:51;;;;;;;8.35;3.83;;;;;;;15.84;62.13;100120.75;5172818;27;20165;-56
2022/06/15 00:58:43;;;;;;;7.90;3.88;;;;;;;15.84;62.03;100119.91;5172777;27;20091;-55
2022/06/15 01:01:27;;;;;;;7.03;4.00;;;;;;;15.82;62.10;100119.88;5156916;27;20045;-55
2022/06/15 01:04:12;;;;;;;10.57;4.68;;;;;;;15.81;62.31;100115.53;5172671;27;20085;-55
2022/06/15 01:07:16;;;;;;;8.45;4.57;;;;;;;15.81;62.01;100112.91;5157098;27;20093;-56
2022/06/15 01:10:10;;;;;;;9.07;4.70;;;;;;;15.79;62.18;100101.63;5172896;27;20142;-55
2022/06/15 01:13:04;;;;;;;8.05;4.32;;;;;;;15.79;62.04;100106.84;5156986;27;20057;-55
2022/06/15 01:16:22;;;;;;;8.05;4.35;;;;;;;15.79;61.98;100105.97;5156335;27;20038;-58
2022/06/15 01:19:27;;;;;;;9.63;4.32;;;;;;;15.78;62.13;100104.22;5156954;27;20053;-55
2022/06/15 01:22:17;;;;;;;28.15;5.15;;;;;;;15.76;62.12;100104.25;5171951;27;20466;-55
2022/06/15 01:25:39;;;;;;;9.48;4.43;;;;;;;15.75;62.23;100099.91;5156908;27;20061;-57
2022/06/15 01:28:26;;;;;;;11.80;4.47;;;;;;;15.74;62.18;100103.38;5155981;27;20046;-56
2022/06/15 01:31:26;;;;;;;8.80;4.65;;;;;;;15.73;62.19;100104.25;5172203;27;20098;-56
2022/06/15 01:34:27;;;;;;;8.10;4.10;;;;;;;15.73;62.26;100098.16;5172257;27;20084;-56
2022/06/15 01:37:20;;;;;;;12.55;4.72;;;;;;;15.71;62.31;100099.94;5156674;27;20053;-55
2022/06/15 01:40:17;;;;;;;5.85;4.22;;;;;;;15.70;62.22;100091.19;5158107;27;20077;-55
2022/06/15 01:43:08;;;;;;;9.68;5.10;;;;;;;15.68;62.22;100088.59;5142274;27;20053;-55
2022/06/15 01:45:54;;;;;;;10.32;5.32;;;;;;;15.68;62.28;100082.50;5142047;27;20091;-55
2022/06/15 01:48:39;;;;;;;12.55;5.07;;;;;;;15.66;62.49;100084.25;5142409;27;20134;-55
2022/06/15 01:51:28;;;;;;;;;;;;;;;15.64;62.13;100083.41;5158699;27;20046;-55
2022/06/15 01:54:24;;;;;;;9.02;5.40;;;;;;;15.63;62.23;100086.91;5157688;27;20002;-55
2022/06/15 01:57:10;;;;;;;11.75;4.97;;;;;;;15.63;62.38;100079.91;5141990;27;20455;-55
2022/06/15 02:00:11;;;;;;;13.50;5.57;;;;;;;15.61;62.27;100086.88;5141862;27;20096;-55
2022/06/15 02:03:14;;;;;;;10.20;5.10;;;;;;;15.59;62.44;100079.94;5142137;27;20041;-55
2022/06/15 02:06:14;;;;;;;12.38;4.93;;;;;;;15.59;62.41;100091.25;5141750;27;20520;-55
2022/06/15 02:09:11;;;;;;;9.88;4.45;;;;;;;15.60;62.42;100081.69;5142281;27;20041;-55
2022/06/15 02:12:01;;;;;;;7.68;4.75;;;;;;;15.59;62.38;100077.31;5157509;27;20071;-54
2022/06/15 02:14:50;;;;;;;9.70;4.95;;;;;;;15.57;62.31;100074.69;5142132;27;20104;-55
2022/06/15 02:17:39;;;;;;;12.52;5.10;;;;;;;15.56;62.29;100073.00;5141860;27;20550;-55
2022/06/15 02:20:28;;;;;;;9.52;4.97;;;;;;;15.55;62.45;100067.75;5141693;27;20042;-55
2022/06/15 02:23:14;;;;;;;9.88;4.70;;;;;;;15.52;62.34;100066.88;5141927;27;20412;-55
2022/06/15 02:25:59;;;;;;;8.55;4.50;;;;;;;15.52;62.51;100071.25;5141812;27;20065;-56
2022/06/15 02:28:48;;;;;;;11.48;4.90;;;;;;;15.50;62.46;100066.03;5157089;27;20041;-56
2022/06/15 02:31:32;;;;;;;9.57;4.70;;;;;;;15.50;62.45;100068.63;5157440;27;20083;-57
2022/06/15 02:34:16;;;;;;;8.88;5.05;;;;;;;15.49;62.51;100066.91;5157094;27;20458;-56
2022/06/15 02:37:00;;;;;;;7.55;4.47;;;;;;;15.48;62.52;100067.81;5156740;27;20428;-56
2022/06/15 02:39:44;;;;;;;8.90;4.50;;;;;;;15.47;62.45;100076.50;5157106;27;20480;-56
2022/06/15 02:42:34;;;;;;;8.27;4.80;;;;;;;15.44;62.44;100070.41;5156915;27;20037;-56
2022/06/15 02:45:29;;;;;;;11.90;4.70;;;;;;;15.42;62.37;100073.03;5141560;27;20512;-55
2022/06/15 02:48:15;;;;;;;10.32;5.07;;;;;;;15.41;62.52;100070.44;5141173;27;20074;-55
2022/06/15 02:51:12;;;;;;;8.73;4.65;;;;;;;15.40;62.45;100076.53;5140091;27;20072;-55
2022/06/15 02:54:02;;;;;;;10.45;4.65;;;;;;;15.36;62.47;100070.44;5156780;27;20114;-55
2022/06/15 02:56:46;;;;;;;9.88;4.03;;;;;;;15.34;62.62;100077.41;5141154;27;20129;-55
2022/06/15 02:59:30;;;;;;;;;;;;;;;15.31;62.33;100077.44;5141440;27;20049;-55
2022/06/15 03:02:15;;;;;;;8.68;5.07;;;;;;;15.28;62.56;100075.69;5156601;27;19995;-55
2022/06/15 03:04:59;;;;;;;7.13;4.68;;;;;;;15.27;62.73;100073.09;5141286;27;20409;-55
2022/06/15 03:07:43;;;;;;;9.02;5.05;;;;;;;15.27;62.56;100075.69;5156262;27;20046;-55
2022/06/15 03:10:27;;;;;;;6.93;4.78;;;;;;;15.26;62.70;100072.19;5155994;27;20045;-55
2022/06/15 03:13:12;;;;;;;7.03;4.88;;;;;;;15.22;62.52;100075.72;5156449;27;20089;-55
2022/06/15 03:16:00;;;;;;;6.80;4.53;;;;;;;15.20;62.68;100077.44;5140158;27;20045;-55
2022/06/15 03:18:45;;;;;;;10.00;4.30;;;;;;;15.19;62.75;100079.19;5140819;27;20123;-55
2022/06/15 03:21:29;;;;;;;;;;;;;;;15.15;62.41;100074.88;5140819;27;20066;-55
2022/06/15 03:24:13;;;;;;;9.18;5.03;;;;;;;15.13;62.74;100079.22;5156047;27;19958;-56
2022/06/15 03:26:56;;;;;;;10.73;5.07;;;;;;;15.12;62.77;100076.59;5155860;27;20054;-56
2022/06/15 03:29:42;;;;;;;9.80;5.60;;;;;;;15.11;62.75;100074.84;5156086;27;20049;-55
2022/06/15 03:32:26;;;;;;;9.30;5.60;;;;;;;15.11;62.64;100082.69;5140331;27;20463;-56
2022/06/15 03:35:11;;;;;;;9.30;5.20;;;;;;;15.11;62.65;100080.06;5140157;27;20042;-55
2022/06/15 03:37:56;;;;;;;6.18;4.78;;;;;;;15.10;62.52;100083.56;5140404;27;20069;-56
2022/06/15 03:40:43;;;;;;;5.82;4.57;;;;;;;15.08;62.83;100075.72;5140237;27;20049;-55
2022/06/15 03:43:27;;;;;;;10.18;5.00;;;;;;;15.06;62.81;100083.56;5140175;27;20046;-56
2022/06/15 03:46:12;;;;;;;9.10;4.90;;;;;;;15.07;62.80;100076.59;5155461;27;20433;-57
2022/06/15 03:48:56;;;;;;;10.07;4.70;;;;;;;15.06;62.68;100080.06;5155791;27;20545;-57
2022/06/15 03:51:40;;;;;;;13.10;4.82;;;;;;;15.05;62.68;100084.44;5156027;27;20508;-56
2022/06/15 03:54:24;;;;;;;10.65;5.40;;;;;;;15.05;62.77;100080.94;5155528;27;20091;-56
2022/06/15 03:57:11;;;;;;;9.75;5.15;;;;;;;15.05;62.78;100089.66;5155543;27;20416;-55
2022/06/15 03:59:55;;;;;;;6.13;4.05;;;;;;;15.04;62.86;100082.72;5140319;27;20058;-55
2022/06/15 04:02:38;;;;;;;10.25;5.20;;;;;;;15.03;62.87;100082.69;5155241;27;20046;-55
2022/06/15 04:05:31;;;;;;;7.47;4.68;;;;;;;15.01;62.78;100082.69;5155717;27;20107;-55
2022/06/15 04:08:42;;;;;;;9.45;6.10;;;;;;;15.02;62.88;100080.97;5155496;27;20064;-55
2022/06/15 04:14:30;;;;;;;8.25;5.47;;;;;;;15.00;62.82;100082.72;5155034;27;20103;-55
2022/06/15 04:17:14;;;;;;;8.88;5.60;;;;;;;14.99;63.11;100092.28;5139647;27;20054;-54
2022/06/15 04:20:43;;;;;;;7.35;4.70;;;;;;;15.00;62.97;100090.53;5155518;27;20081;-55
2022/06/15 04:23:07;;;;;;;12.40;5.23;;;;;;;14.99;62.96;100096.63;5151166;27;20058;-55
2022/06/15 04:26:03;;;;;;;10.05;5.05;;;;;;;14.98;63.28;100093.13;5139209;27;20159;-55
2022/06/15 04:28:46;;;;;;;6.82;5.15;;;;;;;14.99;63.28;100104.47;5155547;27;20118;-55
2022/06/15 04:31:30;;;;;;;9.27;5.25;;;;;;;14.96;63.02;100102.72;5139657;27;20069;-54
2022/06/15 04:34:14;;;;;;;10.38;5.45;;;;;;;14.96;63.15;100101.84;5155427;27;20080;-54
2022/06/15 04:36:59;;;;;;;11.65;5.72;;;;;;;14.96;63.04;100099.25;5155098;27;20050;-55
2022/06/15 04:39:42;;;;;;;13.25;5.60;;;;;;;14.94;63.28;100100.97;5155272;27;20080;-55
2022/06/15 04:42:26;;;;;;;11.15;5.90;;;;;;;14.94;62.99;100095.75;5155126;27;20133;-55
2022/06/15 04:45:15;;;;;;;12.93;6.22;;;;;;;14.91;63.32;100099.25;5154847;27;20091;-55
2022/06/15 04:47:59;;;;;;;9.40;5.82;;;;;;;14.91;63.05;100097.50;5139344;27;20045;-55
2022/06/15 04:50:43;;;;;;;9.38;5.40;;;;;;;14.91;63.19;100094.03;5154907;27;20175;-55
2022/06/15 04:53:28;;;;;;;5.82;4.82;;;;;;;14.92;63.31;100101.00;5154685;27;20046;-55
2022/06/15 04:56:12;;;;;;;12.80;5.72;;;;;;;14.92;63.21;100094.03;5154883;27;20103;-55
2022/06/15 04:58:56;;;;;;;6.95;5.57;;;;;;;14.96;63.27;100094.03;5155153;27;20053;-55
2022/06/15 05:01:40;;;;;;;10.23;6.15;;;;;;;14.99;63.28;100097.50;5154664;27;20554;-55
2022/06/15 05:04:26;;;;;;;11.80;6.18;;;;;;;14.99;63.48;100097.50;5154748;27;20524;-55
2022/06/15 05:07:16;;;;;;;9.48;6.13;;;;;;;15.04;63.51;100102.69;5139238;27;20053;-55
2022/06/15 05:10:00;;;;;;;11.73;5.97;;;;;;;15.05;63.76;100100.09;5139349;27;20053;-57
2022/06/15 05:12:45;;;;;;;12.60;6.25;;;;;;;15.07;63.42;100097.47;5154666;27;20041;-56
2022/06/15 05:15:29;;;;;;;13.60;6.45;;;;;;;15.07;63.50;100100.09;5158470;27;20058;-57
2022/06/15 05:18:17;;;;;;;9.63;6.72;;;;;;;15.09;63.54;100106.19;5142584;27;20118;-54
2022/06/15 05:21:07;;;;;;;9.85;6.10;;;;;;;15.10;63.45;100096.63;5142971;27;20048;-55
2022/06/15 05:23:56;;;;;;;13.55;6.40;;;;;;;15.12;63.56;100103.56;5143141;27;20122;-55
2022/06/15 05:26:45;;;;;;;10.60;6.50;;;;;;;15.13;63.72;100107.03;5142514;27;20557;-56
2022/06/15 05:29:37;;;;;;;13.57;6.90;;;;;;;15.15;63.70;100110.50;5142795;27;20057;-55
2022/06/15 05:32:29;;;;;;;12.05;6.63;;;;;;;15.16;63.66;100101.81;5142831;27;20095;-55
2022/06/15 05:35:13;;;;;;;11.60;6.80;;;;;;;15.18;63.72;100106.16;5158517;27;20098;-55
2022/06/15 05:37:57;;;;;;;9.20;6.60;;;;;;;15.20;63.61;100096.56;5158158;27;20054;-55
2022/06/15 05:40:47;;;;;;;10.15;6.35;;;;;;;15.22;63.59;100099.22;5158603;27;20049;-55
2022/06/15 05:43:53;;;;;;;13.73;6.68;;;;;;;15.24;63.65;100100.06;5142149;27;20466;-55
2022/06/15 05:46:42;;;;;;;8.45;6.43;;;;;;;15.24;63.85;100102.69;5142429;27;20052;-55
2022/06/15 05:49:28;;;;;;;11.98;7.25;;;;;;;15.25;63.82;100107.03;5158241;27;20042;-55
2022/06/15 05:52:14;;;;;;;12.30;6.65;;;;;;;15.27;63.72;100105.25;5142350;27;20053;-55
2022/06/15 05:55:01;;;;;;;10.25;6.50;;;;;;;15.28;63.80;100107.00;5158253;27;20050;-55
2022/06/15 05:57:46;;;;;;;7.78;6.25;;;;;;;15.29;63.78;100115.72;5142574;27;20057;-56
2022/06/15 06:00:31;;;;;;;9.20;5.78;;;;;;;15.32;63.87;100113.97;5157334;27;20041;-56
2022/06/15 06:03:20;;;;;;;;;;;;;;;15.31;63.92;100114.84;5157892;27;20540;-57
2022/06/15 06:06:09;;;;;;;20.27;7.18;;;;;;;15.31;64.00;100111.38;5141591;27;19964;-56
2022/06/15 06:08:53;;;;;;;14.32;7.20;;;;;;;15.33;63.98;100114.84;5141781;27;20405;-55
2022/06/15 06:11:37;;;;;;;10.18;7.00;;;;;;;15.35;63.77;100113.97;5157353;27;20111;-55
2022/06/15 06:14:24;;;;;;;10.90;6.07;;;;;;;15.37;64.23;100112.22;5157205;27;20079;-55
2022/06/15 06:17:17;;;;;;;12.48;6.85;;;;;;;15.41;64.10;100100.03;5141596;27;20139;-55
2022/06/15 06:20:03;;;;;;;18.17;7.43;;;;;;;15.43;63.88;100102.59;5141935;27;20561;-55
2022/06/15 06:22:50;;;;;;;12.57;6.82;;;;;;;15.46;64.05;100107.84;5157252;27;20045;-55
2022/06/15 06:25:34;;;;;;;13.25;6.30;;;;;;;15.48;64.02;100108.69;5157004;27;20050;-55
2022/06/15 06:28:34;;;;;;;10.35;6.20;;;;;;;15.49;64.02;100108.69;5141667;27;20145;-55
2022/06/15 06:31:21;;;;;;;11.45;6.82;;;;;;;15.51;64.00;100106.94;5156853;27;20049;-55
2022/06/15 06:34:13;;;;;;;13.27;6.68;;;;;;;15.55;64.00;100104.31;5141003;27;20046;-55
2022/06/15 06:36:59;;;;;;;12.52;6.93;;;;;;;15.55;63.89;100107.81;5156906;27;20073;-55
2022/06/15 06:39:47;;;;;;;12.48;7.68;;;;;;;15.58;63.96;100110.41;5141745;27;20042;-55
2022/06/15 06:42:31;;;;;;;11.23;7.05;;;;;;;15.60;63.91;100113.03;5141466;27;20053;-55
2022/06/15 06:45:15;;;;;;;10.02;6.57;;;;;;;15.61;64.06;100109.53;5156503;27;20042;-57
2022/06/15 06:48:07;;;;;;;11.75;7.38;;;;;;;15.61;63.52;100110.38;5156447;27;20450;-55
2022/06/15 06:50:55;;;;;;;14.35;6.82;;;;;;;15.64;64.09;100114.75;5157335;27;20093;-55
2022/06/15 06:53:39;;;;;;;10.68;7.00;;;;;;;15.67;64.09;100117.34;5156360;27;20045;-56
2022/06/15 06:56:23;;;;;;;14.30;8.00;;;;;;;15.68;64.04;100116.47;5156086;27;20619;-56
2022/06/15 06:59:10;;;;;;;11.23;7.90;;;;;;;15.71;64.04;100123.44;5154543;27;20042;-59
2022/06/15 07:01:54;;;;;;;10.65;6.82;;;;;;;15.70;64.27;100117.31;5140311;27;20049;-55
2022/06/15 07:04:38;;;;;;;11.32;7.13;;;;;;;15.73;64.00;100122.53;5140968;27;20045;-55
2022/06/15 07:07:22;;;;;;;14.85;7.10;;;;;;;15.74;64.15;100119.06;5155745;27;20103;-55
2022/06/15 07:10:06;;;;;;;10.52;7.32;;;;;;;15.76;63.97;100121.66;5156463;27;20045;-54
2022/06/15 07:12:50;;;;;;;13.90;7.90;;;;;;;15.78;64.21;100126.03;5156395;27;20065;-55
2022/06/15 07:15:34;;;;;;;13.68;7.35;;;;;;;15.80;64.09;100126.84;5155938;27;20083;-59
2022/06/15 07:18:18;;;;;;;14.88;8.60;;;;;;;15.83;64.18;100131.22;5155694;27;20050;-60
2022/06/15 07:21:04;;;;;;;12.43;9.20;;;;;;;15.84;64.26;100127.72;5140147;27;20088;-60
2022/06/15 07:23:50;;;;;;;15.38;9.57;;;;;;;15.88;64.47;100134.72;5155713;27;20138;-59
2022/06/15 07:28:46;;;;;;;22.65;10.00;;;;;;;15.95;64.34;100139.03;5131856;27;20638;-60
2022/06/15 07:31:35;;;;;;;19.45;10.07;;;;;;;15.98;64.60;100133.78;5130872;28;20072;-59
2022/06/15 07:34:21;;;;;;;18.65;9.68;;;;;;;16.04;64.14;100137.28;5130160;28;20042;-61
2022/06/15 07:37:07;;;;;;;16.20;8.50;;;;;;;16.08;64.43;100132.00;5131644;28;20082;-61
2022/06/15 07:39:50;;;;;;;14.10;8.02;;;;;;;16.10;64.34;100126.75;5130808;28;20406;-61
2022/06/15 07:42:34;;;;;;;15.25;9.23;;;;;;;16.15;64.32;100130.22;5131998;27;20065;-61
2022/06/15 07:45:20;;;;;;;13.05;7.97;;;;;;;16.20;64.03;100135.44;5131922;27;20398;-61
2022/06/15 07:51:31;;;;;;;14.07;8.77;;;;;;;16.25;64.27;100136.28;5108987;28;20047;-61
2022/06/15 07:54:17;;;;;;;14.32;9.63;;;;;;;16.28;64.29;100144.06;5130646;27;20062;-61
2022/06/15 07:57:01;;;;;;;13.82;8.68;;;;;;;16.34;64.20;100140.59;5130301;28;20173;-60
2022/06/15 07:59:45;;;;;;;;;;;;;;;16.36;64.20;100144.03;5131276;28;20581;-61
2022/06/15 08:02:29;;;;;;;14.45;9.48;;;;;;;16.39;64.52;100142.28;5131246;27;19957;-61
2022/06/15 08:05:13;;;;;;;16.17;8.98;;;;;;;16.43;64.27;100136.13;5131204;28;20127;-61
2022/06/15 08:07:57;;;;;;;17.90;9.48;;;;;;;16.47;64.38;100133.50;5131253;27;20568;-61
2022/06/15 08:10:41;;;;;;;15.70;9.70;;;;;;;16.50;64.33;100131.75;5130679;28;20041;-61
2022/06/15 08:13:25;;;;;;;14.68;9.82;;;;;;;16.53;64.39;100138.72;5130897;28;20050;-60
2022/06/15 08:16:09;;;;;;;13.20;10.32;;;;;;;16.56;64.49;100136.94;5131326;27;20103;-61
2022/06/15 08:18:58;;;;;;;16.02;9.68;;;;;;;16.60;64.47;100143.00;5130908;28;20058;-61
2022/06/15 08:21:42;;;;;;;15.15;9.93;;;;;;;16.65;64.49;100143.84;5130264;28;20082;-61
2022/06/15 08:24:26;;;;;;;15.93;9.68;;;;;;;16.69;64.35;100142.06;5130601;28;20471;-61
2022/06/15 08:27:12;;;;;;;16.27;9.15;;;;;;;16.73;64.16;100149.03;5130864;28;20062;-61
2022/06/15 08:29:58;;;;;;;16.17;8.93;;;;;;;16.77;64.44;100145.50;5131014;28;20069;-61
2022/06/15 08:32:42;;;;;;;13.55;9.30;;;;;;;16.80;64.18;100148.09;5129221;28;20517;-61
2022/06/15 08:35:27;;;;;;;16.30;9.13;;;;;;;16.82;64.19;100143.69;5130890;28;20047;-61
2022/06/15 08:38:15;;;;;;;16.85;8.77;;;;;;;16.86;64.33;100142.81;5127735;28;20046;-61
2022/06/15 08:41:06;;;;;;;12.40;8.07;;;;;;;16.92;64.36;100138.41;5115653;28;20038;-61
2022/06/15 08:43:59;;;;;;;16.58;9.80;;;;;;;16.95;64.29;100133.19;5116694;28;20093;-61
2022/06/15 08:47:02;;;;;;;17.90;8.90;;;;;;;16.98;64.04;100138.38;5115629;28;20513;-59
2022/06/15 08:50:12;;;;;;;23.45;9.35;;;;;;;17.03;64.31;100137.47;5115967;28;20659;-61
2022/06/15 08:53:10;;;;;;;21.27;10.95;;;;;;;17.08;64.10;100139.16;5115521;28;20094;-62
2022/06/15 08:56:07;;;;;;;12.70;9.32;;;;;;;17.10;64.18;100130.44;5116324;28;20078;-59
2022/06/15 08:59:24;;;;;;;17.17;9.93;;;;;;;17.16;63.90;100127.72;5116686;28;20046;-59
2022/06/15 09:02:24;;;;;;;12.40;8.65;;;;;;;17.18;64.11;100127.72;5116231;28;20046;-59
2022/06/15 09:05:32;;;;;;;17.88;10.80;;;;;;;17.22;64.02;100121.56;5115703;28;20543;-59
2022/06/15 09:08:28;;;;;;;17.15;11.07;;;;;;;17.26;63.80;100128.50;5115804;28;20070;-59
2022/06/15 09:11:19;;;;;;;15.98;10.50;;;;;;;17.31;63.98;100124.09;5115543;28;20123;-59
2022/06/15 09:14:26;;;;;;;27.80;10.88;;;;;;;17.38;64.04;100127.53;5116090;28;20055;-59
2022/06/15 09:17:16;;;;;;;15.75;10.00;;;;;;;17.40;63.86;100120.50;5115401;28;20066;-59
2022/06/15 09:20:08;;;;;;;24.33;10.07;;;;;;;17.42;63.80;100124.00;5115123;28;20047;-60
2022/06/15 09:23:16;;;;;;;21.08;10.77;;;;;;;17.48;63.93;100123.91;5114894;28;20047;-61
2022/06/15 09:26:18;;;;;;;18.65;10.57;;;;;;;17.50;63.73;100118.66;5115518;28;20073;-59
2022/06/15 09:29:06;;;;;;;12.80;10.32;;;;;;;17.56;63.55;100117.72;5115209;28;20053;-59
2022/06/15 09:31:50;;;;;;;19.88;10.27;;;;;;;17.59;63.45;100120.31;5115215;28;20054;-59
2022/06/15 09:34:38;;;;;;;18.23;11.52;;;;;;;17.62;63.64;100118.50;5116041;28;20050;-60
2022/06/15 09:37:26;;;;;;;17.13;11.82;;;;;;;17.66;63.68;100119.34;5114668;28;20085;-59
2022/06/15 09:40:11;;;;;;;18.38;11.90;;;;;;;17.68;63.31;100125.44;5114430;28;20094;-60
2022/06/15 09:43:03;;;;;;;16.08;11.07;;;;;;;17.71;63.66;100135.00;5114850;28;20082;-59
2022/06/15 09:46:04;;;;;;;21.92;10.52;;;;;;;17.76;63.51;100126.19;5115881;28;20059;-59
2022/06/15 09:48:57;;;;;;;16.17;11.27;;;;;;;17.83;63.53;100126.97;5114870;28;20062;-59
2022/06/15 09:52:05;;;;;;;19.40;11.80;;;;;;;17.86;63.46;100124.31;5113191;28;20055;-61
2022/06/15 09:54:51;;;;;;;17.20;11.30;;;;;;;17.89;63.40;100128.69;5114528;28;20579;-61
2022/06/15 09:57:37;;;;;;;21.80;11.10;;;;;;;17.89;63.30;100136.53;5114758;28;20134;-61
2022/06/15 10:00:22;;;;;;;16.63;11.35;;;;;;;17.91;63.48;100127.75;5114624;28;20559;-61
2022/06/15 10:03:12;;;;;;;;;;;;;;;17.95;63.50;100120.72;5114737;28;20525;-61
2022/06/15 10:06:01;;;;;;;19.92;11.27;;;;;;;17.97;63.28;100121.56;5114321;28;20405;-61
2022/06/15 10:08:46;;;;;;;20.55;12.27;;;;;;;17.98;63.08;100117.25;5114178;28;20119;-61
2022/06/15 10:11:37;;;;;;;17.73;11.48;;;;;;;18.00;63.38;100115.44;5113948;28;20089;-61
2022/06/15 10:14:31;;;;;;;26.88;13.27;;;;;;;18.04;63.50;100122.38;5114056;28;20073;-60
2022/06/15 10:17:38;;;;;;;20.92;12.57;;;;;;;18.04;63.49;100111.91;5113849;28;20421;-61
2022/06/15 10:20:31;;;;;;;18.17;12.05;;;;;;;18.09;63.36;100118.81;5114684;28;20113;-61
2022/06/15 10:23:23;;;;;;;18.45;10.23;;;;;;;18.14;63.33;100120.50;5113695;28;20517;-60
2022/06/15 10:26:21;;;;;;;15.43;8.50;;;;;;;18.18;63.13;100124.81;5113592;28;20046;-59
2022/06/15 10:29:31;;;;;;;20.25;8.20;;;;;;;18.22;63.19;100121.25;5114430;28;20123;-59
2022/06/15 10:32:19;;;;;;;14.95;8.73;;;;;;;18.26;62.94;100122.94;5114747;28;20088;-59
2022/06/15 10:35:02;;;;;;;16.20;8.13;;;;;;;18.29;62.94;100129.94;5114136;28;20092;-61
2022/06/15 10:37:46;;;;;;;16.20;8.43;;;;;;;18.33;62.91;100123.72;5114153;28;20120;-60
2022/06/15 10:40:34;;;;;;;20.08;9.55;;;;;;;18.37;62.94;100115.78;5114637;28;20039;-61
2022/06/15 10:43:32;;;;;;;12.18;8.68;;;;;;;18.38;63.12;100107.03;5113820;28;20418;-61
2022/06/15 10:46:19;;;;;;;14.00;8.80;;;;;;;18.41;62.76;100112.22;5113764;28;20119;-61
2022/06/15 10:49:07;;;;;;;16.23;9.13;;;;;;;18.49;62.88;100104.22;5113719;28;20046;-61
2022/06/15 10:51:52;;;;;;;17.10;9.60;;;;;;;18.53;62.92;100098.06;5113452;28;20096;-61
2022/06/15 11:04:24;;;;;;;16.45;9.00;;;;;;;18.64;62.92;100086.50;5113889;28;20050;-60
2022/06/15 11:07:24;;;;;;;12.45;8.27;;;;;;;18.70;62.80;100091.66;5112752;28;20042;-61
2022/06/15 11:10:36;;;;;;;18.27;9.88;;;;;;;18.74;62.76;100084.59;5112623;28;20076;-61
2022/06/15 11:13:26;;;;;;;12.68;6.80;;;;;;;18.75;62.43;100091.59;5112776;28;20076;-61
2022/06/15 11:19:56;;;;;;;9.82;4.95;;;;;;;18.69;62.14;100085.53;5114037;28;20073;-61
2022/06/15 11:22:40;;;;;;;11.48;5.68;;;;;;;18.71;61.78;100089.00;5113621;28;20407;-61
2022/06/15 11:25:51;;;;;;;8.60;5.35;;;;;;;18.73;62.00;100086.38;5113997;28;20460;-61
2022/06/15 11:28:37;;;;;;;9.10;4.90;;;;;;;18.76;61.79;100085.44;5112628;28;20054;-61
2022/06/15 11:31:25;;;;;;;15.95;6.20;;;;;;;18.80;61.95;100093.22;5113178;28;20038;-61
2022/06/15 11:34:19;;;;;;;12.07;5.47;;;;;;;18.89;61.95;100081.69;5113199;28;20051;-61
2022/06/15 11:37:14;;;;;;;11.80;5.43;;;;;;;18.95;61.93;100086.88;5113401;28;20047;-61
2022/06/15 11:40:12;;;;;;;11.38;6.03;;;;;;;18.97;62.10;100087.72;5113720;28;20510;-61
2022/06/15 11:43:00;;;;;;;8.70;5.15;;;;;;;18.95;61.87;100086.00;5112742;28;20054;-61
2022/06/15 11:45:52;;;;;;;10.80;5.28;;;;;;;18.95;61.77;100081.63;5113621;28;20050;-60
2022/06/15 11:48:37;;;;;;;15.18;5.85;;;;;;;18.97;61.57;100085.09;5113530;28;20039;-60
2022/06/15 11:51:48;;;;;;;11.05;6.20;;;;;;;19.00;61.59;100090.28;5113268;28;20559;-61
2022/06/15 11:54:57;;;;;;;9.75;5.18;;;;;;;19.01;61.50;100088.53;5113870;28;20050;-60
2022/06/15 11:58:10;;;;;;;13.10;5.40;;;;;;;19.00;61.50;100079.78;5113200;28;20092;-60
2022/06/15 12:01:15;;;;;;;13.20;5.25;;;;;;;19.03;61.48;100089.38;5112702;28;20042;-59
2022/06/15 12:04:17;;;;;;;;;;;;;;;19.04;61.71;100072.72;5112769;28;20078;-60
2022/06/15 12:07:10;;;;;;;9.35;4.70;;;;;;;19.06;61.29;100064.81;5112445;28;19922;-59
2022/06/15 12:10:28;;;;;;;10.45;5.47;;;;;;;19.06;61.45;100068.31;5112964;28;20046;-60
2022/06/15 12:13:44;;;;;;;13.13;5.65;;;;;;;19.14;61.30;100065.53;5113471;28;20063;-60
2022/06/15 12:16:42;;;;;;;;;;;;;;;19.11;61.16;100069.06;5117553;28;20042;-60
2022/06/15 12:19:46;;;;;;;13.60;5.47;;;;;;;19.10;61.22;100063.88;5116700;28;19922;-60
2022/06/15 12:23:03;;;;;;;10.57;5.00;;;;;;;19.14;61.09;100065.53;5116888;28;20062;-59
2022/06/15 12:26:00;;;;;;;9.35;5.03;;;;;;;19.27;61.15;100066.16;5117371;28;20051;-60
2022/06/15 12:28:50;;;;;;;10.27;4.97;;;;;;;19.30;61.16;100063.47;5116658;28;20096;-60
2022/06/15 12:31:52;;;;;;;9.68;4.68;;;;;;;19.27;60.90;100061.78;5117071;28;20049;-60
2022/06/15 12:35:04;;;;;;;12.32;5.22;;;;;;;19.29;60.54;100060.00;5116470;28;20059;-61
2022/06/15 12:37:48;;;;;;;10.00;4.72;;;;;;;19.28;60.62;100058.25;5115482;28;20051;-59
2022/06/15 12:40:40;;;;;;;10.55;5.15;;;;;;;19.32;60.76;100062.53;5116937;28;20403;-59
2022/06/15 12:43:39;;;;;;;9.75;4.60;;;;;;;19.33;60.56;100058.16;5115852;28;20403;-59
2022/06/15 12:46:26;;;;;;;7.70;4.85;;;;;;;19.32;60.33;100061.69;5115469;28;20088;-61
2022/06/15 12:49:19;;;;;;;10.75;4.20;;;;;;;19.34;60.29;100065.16;5116058;28;20062;-61
2022/06/15 12:52:26;;;;;;;10.57;4.10;;;;;;;19.41;60.12;100068.53;5116458;28;20168;-61
2022/06/15 12:55:30;;;;;;;8.65;3.83;;;;;;;19.46;60.13;100072.78;5115816;28;20089;-61
2022/06/15 12:58:37;;;;;;;9.68;4.57;;;;;;;19.55;60.48;100066.47;5115331;28;20131;-61
2022/06/15 13:01:25;;;;;;;9.20;4.22;;;;;;;19.61;60.14;100073.38;5115315;28;20042;-61
2022/06/15 13:04:31;;;;;;;7.90;3.80;;;;;;;19.72;60.13;100068.72;5115379;28;20046;-62
2022/06/15 13:07:31;;;;;;;10.75;4.15;;;;;;;19.80;59.87;100071.19;5115569;28;20089;-60
2022/06/15 13:10:26;;;;;;;11.77;3.65;;;;;;;19.83;59.71;100070.28;5115451;28;20116;-61
2022/06/15 13:13:27;;;;;;;8.07;3.47;;;;;;;19.82;59.77;100068.56;5115096;28;20525;-61
2022/06/15 13:16:33;;;;;;;6.68;3.58;;;;;;;19.83;59.32;100063.25;5115244;28;20108;-61
2022/06/15 13:19:33;;;;;;;6.85;3.72;;;;;;;19.83;59.69;100073.75;5115660;28;20541;-61
2022/06/15 13:22:31;;;;;;;7.43;4.13;;;;;;;19.85;59.67;100063.22;5115175;28;20054;-61
2022/06/15 13:25:20;;;;;;;13.82;3.85;;;;;;;19.85;59.37;100056.19;5115963;28;20084;-61
2022/06/15 13:28:05;;;;;;;8.23;4.13;;;;;;;19.85;59.22;100064.09;5114325;28;20088;-61
2022/06/15 13:30:51;;;;;;;11.40;4.53;;;;;;;19.89;59.45;100063.16;5115282;28;20411;-61